Terminal Aerodrome Forecast
Issued by NWS Amarillo, TX

Home | Current Version | Previous Version | Text Only | Print | Product List | Glossary On
Versions: 1 2 3 4 5 6 7 8 9 10 11 12 13 14 15 16 17 18 19
236
FTUS44 KAMA 262328
TAFGUY
TAF
KGUY 262328Z 2700/2724 VRB06KT P6SM FEW300
     FM270600 24007KT P6SM FEW300
     FM272000 21007KT P6SM SKC=

USA.gov is the U.S. government's official web portal to all federal, state and local government web resources and services.